Time;durP1;ratioP1;P1;durP2;ratioP2;P2;SDS_P1;SDS_P2;PMS_P1;PMS_P2;Temp;Humidity;BMP_temperature;BMP_pressure;BME280_temperature;BME280_humidity;BME280_pressure;Samples;Min_cycle;Max_cycle;Signal;HPM_P1;HPM_P2
2023/05/14 00:01:59;;;;;;;;;;;;;;;9.88;100.00;95837.88;5085870;28;19924;-78
2023/05/14 00:04:26;;;;;;;;;;;;;;;9.90;100.00;95842.06;5090390;28;19969;-78
2023/05/14 00:06:52;;;;;;;;;;;;;;;9.91;100.00;95838.53;5088158;28;19927;-77
2023/05/14 00:09:19;;;;;;;;;;;;;;;9.92;100.00;95831.59;5084942;28;19928;-78
2023/05/14 00:11:46;;;;;;;;;;;;;;;9.93;100.00;95839.25;5088292;28;19924;-77
2023/05/14 00:14:12;;;;;;;;;;;;;;;9.81;100.00;95837.41;5087752;28;19924;-77
2023/05/14 00:16:38;;;;;;;;;;;;;;;9.61;100.00;95835.16;5087748;28;19954;-78
2023/05/14 00:19:04;;;;;;;;;;;;;;;9.62;100.00;95829.06;5080059;28;20271;-78
2023/05/14 00:21:31;;;;;;;;;;;;;;;9.68;100.00;95829.53;5085348;28;19925;-78
2023/05/14 00:23:57;;;;;;;;;;;;;;;9.73;100.00;95821.50;5084874;28;20007;-78
2023/05/14 00:26:25;;;;;;;;;;;;;;;9.78;100.00;95822.06;5084734;28;20274;-78
2023/05/14 00:28:51;;;;;;;;;;;;;;;9.83;100.00;95824.41;5084558;28;19928;-76
2023/05/14 00:31:17;;;;;;;;;;;;;;;9.81;100.00;95824.47;5086964;28;19923;-77
2023/05/14 00:33:44;;;;;;;;;;;;;;;9.61;100.00;95825.66;5083339;28;19924;-76
2023/05/14 00:36:10;;;;;;;;;;;;;;;9.56;100.00;95829.41;5087217;28;19924;-77
2023/05/14 00:38:36;;;;;;;;;;;;;;;9.66;100.00;95817.63;5080689;28;19929;-77
2023/05/14 00:41:03;;;;;;;;;;;;;;;9.74;100.00;95812.81;5083950;28;19928;-77
2023/05/14 00:43:32;;;;;;;;;;;;;;;9.75;100.00;95811.88;5080773;28;19928;-78
2023/05/14 00:45:58;;;;;;;;;;;;;;;9.77;100.00;95802.31;5079729;28;19924;-76
2023/05/14 00:48:25;;;;;;;;;;;;;;;9.82;100.00;95804.59;5084741;28;19928;-78
2023/05/14 00:50:51;;;;;;;;;;;;;;;9.86;100.00;95798.31;5084274;28;19935;-76
2023/05/14 00:53:18;;;;;;;;;;;;;;;9.84;100.00;95795.03;5088332;28;19924;-75
2023/05/14 00:55:45;;;;;;;;;;;;;;;9.80;100.00;95786.59;5084687;28;19932;-77
2023/05/14 00:58:12;;;;;;;;;;;;;;;9.69;100.00;95791.59;5089943;28;19935;-76
2023/05/14 01:00:41;;;;;;;;;;;;;;;9.67;100.00;95789.06;5080002;28;19977;-77
2023/05/14 01:03:07;;;;;;;;;;;;;;;9.72;100.00;95785.41;5084010;28;19924;-76
2023/05/14 01:05:36;;;;;;;;;;;;;;;9.60;100.00;95790.38;5086260;28;19928;-78
2023/05/14 01:08:07;;;;;;;;;;;;;;;9.45;100.00;95781.75;5087530;28;19932;-77
2023/05/14 01:10:38;;;;;;;;;;;;;;;9.25;100.00;95778.66;5082796;28;20286;-78
2023/05/14 01:13:09;;;;;;;;;;;;;;;9.01;100.00;95783.44;5079327;28;19933;-78
2023/05/14 01:15:36;;;;;;;;;;;;;;;9.02;100.00;95777.38;5080834;28;19974;-77
2023/05/14 01:18:06;;;;;;;;;;;;;;;9.03;100.00;95773.88;5085660;28;19928;-78
2023/05/14 01:20:32;;;;;;;;;;;;;;;9.18;100.00;95773.00;5086671;28;20297;-78
2023/05/14 01:22:59;;;;;;;;;;;;;;;9.26;100.00;95765.63;5079500;28;19924;-78
2023/05/14 01:25:26;;;;;;;;;;;;;;;9.08;100.00;95771.84;5085243;28;20385;-78
2023/05/14 01:27:57;;;;;;;;;;;;;;;8.96;100.00;95773.38;5082051;28;19924;-78
2023/05/14 01:30:27;;;;;;;;;;;;;;;9.02;100.00;95779.97;5082232;28;19932;-78
2023/05/14 01:32:56;;;;;;;;;;;;;;;9.05;100.00;95775.47;5078668;28;19966;-76
2023/05/14 01:35:23;;;;;;;;;;;;;;;8.98;100.00;95773.31;5080894;28;19925;-77
2023/05/14 01:37:50;;;;;;;;;;;;;;;8.91;100.00;95773.66;5081473;28;20337;-77
2023/05/14 01:40:18;;;;;;;;;;;;;;;9.03;100.00;95776.47;5087920;28;20291;-77
2023/05/14 01:42:45;;;;;;;;;;;;;;;9.14;100.00;95767.16;5076946;28;19928;-76
2023/05/14 01:45:11;;;;;;;;;;;;;;;9.20;100.00;95772.00;5083450;28;19928;-76
2023/05/14 01:47:37;;;;;;;;;;;;;;;8.90;100.00;95774.56;5082708;28;19928;-77
2023/05/14 01:50:04;;;;;;;;;;;;;;;8.81;100.00;95775.06;5080067;28;19970;-77
2023/05/14 01:52:30;;;;;;;;;;;;;;;8.90;100.00;95774.56;5090804;28;19928;-76
2023/05/14 01:54:57;;;;;;;;;;;;;;;9.04;100.00;95771.19;5092225;28;20389;-76
2023/05/14 01:57:24;;;;;;;;;;;;;;;9.09;100.00;95776.13;5080193;28;20453;-76
2023/05/14 01:59:51;;;;;;;;;;;;;;;9.10;100.00;95778.59;5079319;28;19928;-77
2023/05/14 02:02:17;;;;;;;;;;;;;;;9.13;100.00;95769.84;5084062;28;19924;-76
2023/05/14 02:04:43;;;;;;;;;;;;;;;9.01;100.00;95768.81;5078479;28;19925;-77
2023/05/14 02:07:09;;;;;;;;;;;;;;;9.12;100.00;95773.34;5086477;28;19928;-76
2023/05/14 02:09:36;;;;;;;;;;;;;;;9.27;100.00;95772.50;5090239;28;19924;-76
2023/05/14 02:12:02;;;;;;;;;;;;;;;9.27;100.00;95775.06;5078367;28;19955;-76
2023/05/14 02:14:30;;;;;;;;;;;;;;;9.17;100.00;95771.34;5085842;28;20363;-76
2023/05/14 02:16:56;;;;;;;;;;;;;;;9.13;100.00;95769.84;5087170;28;19935;-76
2023/05/14 02:19:23;;;;;;;;;;;;;;;9.11;100.00;95775.09;5086169;28;20357;-77
2023/05/14 02:21:50;;;;;;;;;;;;;;;9.16;100.00;95780.03;5087615;28;20007;-77
2023/05/14 02:24:16;;;;;;;;;;;;;;;9.20;100.00;95779.75;5085796;28;19983;-77
2023/05/14 02:26:42;;;;;;;;;;;;;;;9.16;100.00;95772.28;5084827;28;19924;-77
2023/05/14 02:29:09;;;;;;;;;;;;;;;9.07;100.00;95772.78;5089602;28;19928;-77
2023/05/14 02:31:36;;;;;;;;;;;;;;;9.08;100.00;95770.09;5081649;28;19924;-77
2023/05/14 02:34:03;;;;;;;;;;;;;;;8.98;100.00;95765.56;5088536;28;19982;-76
2023/05/14 02:36:29;;;;;;;;;;;;;;;9.06;100.00;95774.53;5086544;28;20378;-76
2023/05/14 02:38:55;;;;;;;;;;;;;;;9.12;100.00;95781.09;5086715;28;20007;-76
2023/05/14 02:41:22;;;;;;;;;;;;;;;9.18;100.00;95778.16;5082008;28;19981;-76
2023/05/14 02:43:48;;;;;;;;;;;;;;;9.20;100.00;95768.59;5080463;28;19925;-76
2023/05/14 02:46:14;;;;;;;;;;;;;;;9.26;100.00;95775.16;5080931;28;20444;-76
2023/05/14 02:48:42;;;;;;;;;;;;;;;9.21;100.00;95765.91;5084618;28;19928;-76
2023/05/14 02:51:08;;;;;;;;;;;;;;;9.09;100.00;95764.03;5081848;28;19925;-76
2023/05/14 02:53:34;;;;;;;;;;;;;;;8.86;100.00;95765.34;5072635;28;20014;-76
2023/05/14 02:56:01;;;;;;;;;;;;;;;8.90;100.00;95760.84;5080643;28;19977;-77
2023/05/14 02:58:27;;;;;;;;;;;;;;;8.93;100.00;95765.78;5083568;28;19928;-77
2023/05/14 03:00:53;;;;;;;;;;;;;;;8.92;100.00;95770.13;5074207;28;19925;-77
2023/05/14 03:03:19;;;;;;;;;;;;;;;9.10;100.00;95760.53;5085974;28;19924;-76
2023/05/14 03:05:47;;;;;;;;;;;;;;;9.10;100.00;95770.03;5079212;28;20245;-76
2023/05/14 03:08:13;;;;;;;;;;;;;;;9.13;100.00;95768.09;5072812;28;19924;-77
2023/05/14 03:10:41;;;;;;;;;;;;;;;9.30;100.00;95772.28;5085656;28;21280;-76
2023/05/14 03:13:07;;;;;;;;;;;;;;;9.31;100.00;95761.03;5082924;28;20501;-76
2023/05/14 03:15:34;;;;;;;;;;;;;;;9.27;100.00;95762.16;5086684;28;19925;-76
2023/05/14 03:18:00;;;;;;;;;;;;;;;9.21;100.00;95759.91;5084719;28;20326;-76
2023/05/14 03:20:26;;;;;;;;;;;;;;;9.21;100.00;95760.72;5084183;28;20051;-76
2023/05/14 03:22:55;;;;;;;;;;;;;;;9.22;100.00;95764.16;5082538;28;19924;-76
2023/05/14 03:25:21;;;;;;;;;;;;;;;9.23;100.00;95757.22;5087376;28;20434;-76
2023/05/14 03:27:47;;;;;;;;;;;;;;;9.18;100.00;95760.91;5080892;28;20303;-76
2023/05/14 03:30:14;;;;;;;;;;;;;;;8.96;100.00;95763.03;5077958;28;19924;-77
2023/05/14 03:32:41;;;;;;;;;;;;;;;9.01;100.00;95765.38;5076893;28;19970;-76
2023/05/14 03:35:08;;;;;;;;;;;;;;;9.04;100.00;95760.03;5087198;28;19924;-76
2023/05/14 03:37:34;;;;;;;;;;;;;;;9.18;100.00;95760.06;5085713;28;19928;-77
2023/05/14 03:40:02;;;;;;;;;;;;;;;9.25;100.00;95760.56;5085050;28;20011;-77
2023/05/14 03:42:28;;;;;;;;;;;;;;;9.44;100.00;95764.56;5083254;28;19924;-76
2023/05/14 03:44:54;;;;;;;;;;;;;;;9.40;100.00;95757.09;5085609;28;20382;-76
2023/05/14 03:47:20;;;;;;;;;;;;;;;9.34;100.00;95758.25;5078080;28;20452;-77
2023/05/14 03:49:47;;;;;;;;;;;;;;;9.44;100.00;95750.81;5087223;28;20372;-76
2023/05/14 03:52:13;;;;;;;;;;;;;;;9.28;100.00;95763.81;5074192;28;19989;-76
2023/05/14 03:54:40;;;;;;;;;;;;;;;9.28;100.00;95756.06;5080524;28;19924;-76
2023/05/14 03:57:07;;;;;;;;;;;;;;;9.29;100.00;95760.28;5084222;28;19932;-77
2023/05/14 03:59:34;;;;;;;;;;;;;;;9.33;100.00;95760.94;5086947;28;20298;-76
2023/05/14 04:02:00;;;;;;;;;;;;;;;9.29;100.00;95762.88;5084003;28;19967;-77
2023/05/14 04:04:27;;;;;;;;;;;;;;;9.17;100.00;95761.00;5079235;28;19934;-76
2023/05/14 04:06:53;;;;;;;;;;;;;;;9.17;100.00;95756.66;5084725;28;20344;-76
2023/05/14 04:09:19;;;;;;;;;;;;;;;9.08;100.00;95757.19;5082569;28;20364;-76
2023/05/14 04:11:45;;;;;;;;;;;;;;;9.17;100.00;95763.59;5081605;28;19981;-76
2023/05/14 04:14:13;;;;;;;;;;;;;;;9.00;100.00;95755.97;5077290;28;20015;-77
2023/05/14 04:16:39;;;;;;;;;;;;;;;8.95;100.00;95757.06;5085161;28;19969;-76
2023/05/14 04:19:06;;;;;;;;;;;;;;;8.85;100.00;95760.25;5079999;28;19928;-76
2023/05/14 04:21:32;;;;;;;;;;;;;;;8.95;100.00;95759.63;5085655;28;19924;-76
2023/05/14 04:23:58;;;;;;;;;;;;;;;9.01;100.00;95761.06;5086230;28;20414;-77
2023/05/14 04:26:24;;;;;;;;;;;;;;;8.98;100.00;95765.56;5082657;28;20325;-76
2023/05/14 04:28:51;;;;;;;;;;;;;;;8.91;100.00;95760.72;5086879;28;19929;-76
2023/05/14 04:31:19;;;;;;;;;;;;;;;8.80;100.00;95764.84;5085689;28;19924;-77
2023/05/14 04:33:45;;;;;;;;;;;;;;;8.75;100.00;95762.53;5085270;28;20010;-76
2023/05/14 04:36:12;;;;;;;;;;;;;;;8.78;100.00;95770.06;5085459;28;19951;-76
2023/05/14 04:38:38;;;;;;;;;;;;;;;8.79;100.00;95761.44;5081590;28;19978;-76
2023/05/14 04:41:05;;;;;;;;;;;;;;;8.77;100.00;95762.41;5084558;28;19970;-76
2023/05/14 04:43:31;;;;;;;;;;;;;;;8.85;100.00;95771.41;5086665;28;19928;-76
2023/05/14 04:45:57;;;;;;;;;;;;;;;8.99;100.00;95768.03;5082560;28;20452;-77
2023/05/14 04:48:25;;;;;;;;;;;;;;;9.02;100.00;95761.88;5077910;28;20383;-76
2023/05/14 04:50:52;;;;;;;;;;;;;;;8.93;100.00;95766.63;5083701;28;19928;-76
2023/05/14 04:53:18;;;;;;;;;;;;;;;8.83;100.00;95768.09;5088223;28;20293;-76
2023/05/14 04:55:44;;;;;;;;;;;;;;;8.75;100.00;95761.66;5085951;28;19989;-78
2023/05/14 04:58:10;;;;;;;;;;;;;;;8.75;100.00;95774.56;5088330;28;19924;-78
2023/05/14 05:00:37;;;;;;;;;;;;;;;8.75;100.00;95772.00;5079998;28;19925;-78
2023/05/14 05:03:03;;;;;;;;;;;;;;;8.85;100.00;95765.41;5089352;28;19928;-76
2023/05/14 05:05:31;;;;;;;;;;;;;;;8.92;100.00;95769.31;5088114;28;19924;-78
2023/05/14 05:07:57;;;;;;;;;;;;;;;9.11;100.00;95761.34;5085952;28;20267;-78
2023/05/14 05:10:24;;;;;;;;;;;;;;;9.23;100.00;95763.22;5078020;28;19924;-78
2023/05/14 05:12:50;;;;;;;;;;;;;;;9.10;100.00;95757.94;5080596;28;19978;-77
2023/05/14 05:15:16;;;;;;;;;;;;;;;9.19;100.00;95753.97;5088842;28;19978;-77
2023/05/14 05:17:42;;;;;;;;;;;;;;;9.14;100.00;95756.00;5082329;28;19954;-78
2023/05/14 05:20:09;;;;;;;;;;;;;;;9.02;100.00;95760.13;5089611;28;19977;-78
2023/05/14 05:22:36;;;;;;;;;;;;;;;9.01;100.00;95755.03;5084380;28;19947;-78
2023/05/14 05:25:05;;;;;;;;;;;;;;;8.94;100.00;95765.72;5093153;28;19936;-78
2023/05/14 05:27:31;;;;;;;;;;;;;;;8.91;100.00;95762.50;5085610;28;19993;-77
2023/05/14 05:29:57;;;;;;;;;;;;;;;8.87;100.00;95759.25;5093166;28;19928;-78
2023/05/14 05:32:23;;;;;;;;;;;;;;;8.92;100.00;95759.81;5084748;28;19924;-77
2023/05/14 05:34:50;;;;;;;;;;;;;;;8.92;100.00;95753.81;5091699;28;19928;-77
2023/05/14 05:37:17;;;;;;;;;;;;;;;9.03;100.00;95760.97;5088820;28;19932;-76
2023/05/14 05:39:46;;;;;;;;;;;;;;;9.15;100.00;95757.66;5084509;28;19930;-77
2023/05/14 05:42:12;;;;;;;;;;;;;;;9.18;100.00;95760.06;5087438;28;19931;-77
2023/05/14 05:44:38;;;;;;;;;;;;;;;9.10;100.00;95762.28;5087282;28;19969;-76
2023/05/14 05:47:05;;;;;;;;;;;;;;;8.98;100.00;95760.41;5084396;28;19924;-76
2023/05/14 05:49:31;;;;;;;;;;;;;;;8.94;100.00;95764.91;5081644;28;19982;-77
2023/05/14 05:51:58;;;;;;;;;;;;;;;8.92;100.00;95751.22;5080320;28;20400;-76
2023/05/14 05:54:24;;;;;;;;;;;;;;;8.96;100.00;95758.72;5086783;28;20328;-78
2023/05/14 05:56:52;;;;;;;;;;;;;;;9.11;100.00;95754.44;5083222;28;20387;-77
2023/05/14 05:59:18;;;;;;;;;;;;;;;9.27;100.00;95763.88;5073916;28;19966;-78
2023/05/14 06:01:44;;;;;;;;;;;;;;;9.30;100.00;95758.53;5086795;28;19935;-79
2023/05/14 06:04:11;;;;;;;;;;;;;;;9.27;100.00;95766.47;5091179;28;20333;-77
2023/05/14 06:06:37;;;;;;;;;;;;;;;9.21;100.00;95752.97;5088407;28;19982;-76
2023/05/14 06:09:05;;;;;;;;;;;;;;;9.28;100.00;95750.88;5083003;28;19931;-77
2023/05/14 06:11:31;;;;;;;;;;;;;;;9.37;100.00;95747.75;5076420;28;19928;-77
2023/05/14 06:13:59;;;;;;;;;;;;;;;9.60;100.00;95761.06;5073746;28;19929;-78
2023/05/14 06:16:25;;;;;;;;;;;;;;;9.74;100.00;95750.75;5078964;28;19924;-76
2023/05/14 06:18:53;;;;;;;;;;;;;;;9.87;100.00;95758.63;5078582;28;19932;-77
2023/05/14 06:21:19;;;;;;;;;;;;;;;9.99;100.00;95757.88;5081112;28;20485;-77
2023/05/14 06:23:45;;;;;;;;;;;;;;;10.09;100.00;95752.97;5078461;28;20345;-78
2023/05/14 06:26:12;;;;;;;;;;;;;;;10.07;100.00;95763.41;5084936;28;19924;-77
2023/05/14 06:28:38;;;;;;;;;;;;;;;10.05;100.00;95757.50;5078811;28;19924;-77
2023/05/14 06:31:06;;;;;;;;;;;;;;;9.89;100.00;95754.19;5081984;28;19924;-77
2023/05/14 06:33:32;;;;;;;;;;;;;;;9.91;100.00;95753.16;5088946;28;19924;-78
2023/05/14 06:35:58;;;;;;;;;;;;;;;9.91;100.00;95762.69;5089726;28;19924;-77
2023/05/14 06:38:24;;;;;;;;;;;;;;;9.99;100.00;95762.22;5083021;28;19970;-76
2023/05/14 06:40:51;;;;;;;;;;;;;;;10.04;100.00;95767.94;5083415;28;20391;-77
2023/05/14 06:43:18;;;;;;;;;;;;;;;10.05;100.00;95762.69;5086174;28;19971;-78
2023/05/14 06:45:44;;;;;;;;;;;;;;;10.14;100.00;95763.88;5081778;28;19948;-78
2023/05/14 06:48:12;;;;;;;;;;;;;;;10.16;100.00;95762.03;5083202;28;20687;-79
2023/05/14 06:50:38;;;;;;;;;;;;;;;10.51;100.00;95761.63;5083335;28;19925;-77
2023/05/14 06:53:04;;;;;;;;;;;;;;;10.70;100.00;95762.13;5077255;28;20391;-77
2023/05/14 06:55:31;;;;;;;;;;;;;;;10.69;100.00;95759.66;5080418;28;19951;-77
2023/05/14 06:57:57;;;;;;;;;;;;;;;10.87;100.00;95761.91;5084366;28;19946;-77
2023/05/14 07:00:23;;;;;;;;;;;;;;;11.01;100.00;95763.63;5075986;28;20291;-77
2023/05/14 07:02:50;;;;;;;;;;;;;;;10.87;100.00;95768.84;5078495;28;19924;-77
2023/05/14 07:05:18;;;;;;;;;;;;;;;10.97;100.00;95758.69;5077916;28;20002;-77
2023/05/14 07:07:44;;;;;;;;;;;;;;;10.82;100.00;95763.09;5070546;28;20344;-77
2023/05/14 07:10:11;;;;;;;;;;;;;;;10.88;100.00;95763.56;5081058;28;19924;-77
2023/05/14 07:12:37;;;;;;;;;;;;;;;10.97;100.00;95767.31;5076887;28;20444;-77
2023/05/14 07:15:04;;;;;;;;;;;;;;;11.01;100.00;95767.94;5082923;28;19924;-77
2023/05/14 07:17:30;;;;;;;;;;;;;;;11.10;100.00;95769.94;5084378;28;19931;-77
2023/05/14 07:19:57;;;;;;;;;;;;;;;10.92;100.00;95761.59;5076700;28;20438;-77
2023/05/14 07:22:24;;;;;;;;;;;;;;;10.90;100.00;95759.13;5084529;28;19924;-77
2023/05/14 07:24:50;;;;;;;;;;;;;;;11.13;100.00;95752.44;5083110;28;19924;-78
2023/05/14 07:27:17;;;;;;;;;;;;;;;11.19;100.00;95750.38;5083412;28;20408;-70
2023/05/14 07:29:43;;;;;;;;;;;;;;;11.41;100.00;95747.19;5084973;28;19924;-72
2023/05/14 07:32:09;;;;;;;;;;;;;;;11.36;100.00;95747.50;5091336;28;20373;-77
2023/05/14 07:34:35;;;;;;;;;;;;;;;11.42;100.00;95747.09;5079698;28;19925;-78
2023/05/14 07:37:02;;;;;;;;;;;;;;;11.56;100.00;95746.16;5082212;28;19924;-76
2023/05/14 07:39:30;;;;;;;;;;;;;;;11.36;100.00;95745.72;5081231;28;19924;-76
2023/05/14 07:41:56;;;;;;;;;;;;;;;11.20;100.00;95746.84;5083284;28;19928;-76
2023/05/14 07:44:22;;;;;;;;;;;;;;;11.35;100.00;95748.44;5074855;28;19924;-76
2023/05/14 07:46:48;;;;;;;;;;;;;;;11.33;100.00;95751.13;5080943;28;19970;-76
2023/05/14 07:49:15;;;;;;;;;;;;;;;11.57;100.00;95742.66;5083372;28;20276;-76
2023/05/14 07:51:41;;;;;;;;;;;;;;;11.65;100.00;95742.97;5087935;28;19932;-76
2023/05/14 07:54:07;;;;;;;;;;;;;;;12.06;100.00;95742.75;5081753;28;19932;-76
2023/05/14 07:56:35;;;;;;;;;;;;;;;12.13;100.00;95743.19;5085859;28;19930;-76
2023/05/14 07:59:01;;;;;;;;;;;;;;;12.01;100.00;95747.44;5084054;28;19928;-77
2023/05/14 08:01:27;;;;;;;;;;;;;;;11.86;100.00;95748.47;5084414;28;19935;-76
2023/05/14 08:03:54;;;;;;;;;;;;;;;11.90;100.00;95749.09;5086453;28;19936;-76
2023/05/14 08:06:21;;;;;;;;;;;;;;;11.91;100.00;95749.00;5078680;28;19986;-76
2023/05/14 08:08:47;;;;;;;;;;;;;;;11.98;100.00;95745.06;5074675;28;19928;-76
2023/05/14 08:11:14;;;;;;;;;;;;;;;11.97;100.00;95742.56;5080866;28;19924;-77
2023/05/14 08:13:41;;;;;;;;;;;;;;;12.20;100.00;95746.16;5084793;28;20382;-76
2023/05/14 08:16:07;;;;;;;;;;;;;;;12.34;100.00;95743.44;5084425;28;19936;-76
2023/05/14 08:18:34;;;;;;;;;;;;;;;12.21;100.00;95751.25;5076329;28;19932;-77
2023/05/14 08:21:00;;;;;;;;;;;;;;;12.09;100.00;95747.75;5084206;28;19950;-77
2023/05/14 08:23:27;;;;;;;;;;;;;;;12.29;100.00;95743.75;5082705;28;20341;-76
2023/05/14 08:25:53;;;;;;;;;;;;;;;12.45;100.00;95742.69;5072376;28;19924;-76
2023/05/14 08:28:19;;;;;;;;;;;;;;;12.51;100.00;95748.28;5068008;28;19925;-76
2023/05/14 08:30:47;;;;;;;;;;;;;;;12.30;100.00;95748.00;5071981;28;19924;-76
2023/05/14 08:33:13;;;;;;;;;;;;;;;12.48;100.00;95735.50;5064530;28;19924;-76
2023/05/14 08:35:39;;;;;;;;;;;;;;;12.43;100.00;95742.78;5079470;28;19924;-77
2023/05/14 08:38:06;;;;;;;;;;;;;;;12.54;100.00;95744.63;5080523;28;20461;-77
2023/05/14 08:40:32;;;;;;;;;;;;;;;12.61;100.00;95748.47;5081707;28;20023;-77
2023/05/14 08:42:58;;;;;;;;;;;;;;;12.72;100.00;95740.72;5081560;28;19928;-77
2023/05/14 08:45:28;;;;;;;;;;;;;;;12.58;100.00;95738.28;5084510;28;19970;-77
2023/05/14 08:47:58;;;;;;;;;;;;;;;12.49;100.00;95737.16;5077766;28;19925;-77
2023/05/14 08:50:25;;;;;;;;;;;;;;;12.35;100.00;95740.75;5069256;28;20409;-77
2023/05/14 08:52:51;;;;;;;;;;;;;;;12.42;100.00;95740.28;5077249;28;20015;-77
2023/05/14 08:55:18;;;;;;;;;;;;;;;12.36;100.00;95733.78;5075303;28;19990;-77
2023/05/14 08:57:45;;;;;;;;;;;;;;;12.32;100.00;95737.53;5081902;28;19924;-77
2023/05/14 09:00:12;;;;;;;;;;;;;;;12.46;100.00;95734.78;5074894;28;19928;-77
2023/05/14 09:02:39;;;;;;;;;;;;;;;12.61;100.00;95725.09;5078774;28;20279;-77
2023/05/14 09:05:09;;;;;;;;;;;;;;;13.10;100.00;95721.53;5081047;28;19967;-78
2023/05/14 09:07:35;;;;;;;;;;;;;;;13.45;100.00;95726.72;5070273;28;19979;-78
2023/05/14 09:10:02;;;;;;;;;;;;;;;14.10;100.00;95722.66;5088849;28;20346;-78
2023/05/14 09:12:28;;;;;;;;;;;;;;;14.55;100.00;95712.22;5086204;28;19931;-77
2023/05/14 09:14:55;;;;;;;;;;;;;;;14.59;100.00;95716.22;5083612;28;19924;-78
2023/05/14 09:17:21;;;;;;;;;;;;;;;14.84;100.00;95719.50;5086934;28;19928;-78
2023/05/14 09:19:47;;;;;;;;;;;;;;;14.87;100.00;95719.22;5089600;28;19936;-78
2023/05/14 09:22:16;;;;;;;;;;;;;;;15.02;100.00;95712.78;5075546;28;19928;-78
2023/05/14 09:24:43;;;;;;;;;;;;;;;14.88;100.00;95708.69;5084112;28;19924;-78
2023/05/14 09:27:14;;;;;;;;;;;;;;;15.12;100.00;95711.06;5095114;28;20378;-79
2023/05/14 09:29:41;;;;;;;;;;;;;;;15.01;100.00;95706.72;5091895;28;19928;-77
2023/05/14 09:32:09;;;;;;;;;;;;;;;14.91;100.00;95707.63;5081556;28;19951;-78
2023/05/14 09:34:36;;;;;;;;;;;;;;;14.83;100.00;95710.00;5080780;28;19924;-78
2023/05/14 09:37:04;;;;;;;;;;;;;;;14.85;100.00;95708.91;5081799;28;19928;-75
2023/05/14 09:39:32;;;;;;;;;;;;;;;14.75;100.00;95706.22;5079617;28;19950;-77
2023/05/14 09:41:58;;;;;;;;;;;;;;;14.97;100.00;95701.88;5085207;28;20290;-78
2023/05/14 09:44:24;;;;;;;;;;;;;;;14.93;100.00;95705.69;5088928;28;19924;-77
2023/05/14 09:46:51;;;;;;;;;;;;;;;14.85;100.00;95697.66;5079112;28;20348;-76
2023/05/14 09:49:18;;;;;;;;;;;;;;;14.71;100.00;95699.59;5079109;28;20027;-77
2023/05/14 09:51:44;;;;;;;;;;;;;;;14.54;100.00;95702.75;5077390;28;19933;-77
2023/05/14 09:54:10;;;;;;;;;;;;;;;14.71;100.00;95701.38;5090194;28;20290;-76
2023/05/14 09:56:39;;;;;;;;;;;;;;;14.87;100.00;95698.34;5071002;28;19929;-76
2023/05/14 09:59:05;;;;;;;;;;;;;;;14.88;100.00;95692.22;5083948;28;19970;-77
2023/05/14 10:01:32;;;;;;;;;;;;;;;15.00;100.00;95692.03;5073354;28;20379;-76
2023/05/14 10:03:59;;;;;;;;;;;;;;;15.08;100.00;95694.00;5090462;28;20386;-76
2023/05/14 10:06:27;;;;;;;;;;;;;;;15.52;100.00;95691.28;5082188;28;19928;-77
2023/05/14 10:08:54;;;;;;;;;;;;;;;15.62;100.00;95694.78;5083776;28;19927;-77
2023/05/14 10:11:23;;;;;;;;;;;;;;;15.41;100.00;95685.19;5090174;28;19931;-77
2023/05/14 10:13:55;;;;;;;;;;;;;;;15.21;100.00;95697.28;5083268;28;19924;-76
2023/05/14 10:16:24;;;;;;;;;;;;;;;15.11;100.00;95693.75;5082645;28;19928;-76
2023/05/14 10:18:54;;;;;;;;;;;;;;;14.98;100.00;95693.09;5085134;28;19947;-78
2023/05/14 10:21:22;;;;;;;;;;;;;;;14.89;100.00;95688.66;5081787;28;19939;-77
2023/05/14 10:23:49;;;;;;;;;;;;;;;14.71;100.00;95691.78;5089074;28;19932;-77
2023/05/14 10:26:15;;;;;;;;;;;;;;;14.66;100.00;95690.50;5084815;28;19928;-77
2023/05/14 10:28:42;;;;;;;;;;;;;;;14.72;100.00;95690.84;5084644;28;19932;-76
2023/05/14 10:31:10;;;;;;;;;;;;;;;14.65;100.00;95692.28;5084535;28;20559;-76
2023/05/14 10:33:46;;;;;;;;;;;;;;;14.99;100.00;95695.59;5088822;28;19927;-76
2023/05/14 10:36:12;;;;;;;;;;;;;;;14.66;100.00;95688.72;5084767;28;20295;-77
2023/05/14 10:38:38;;;;;;;;;;;;;;;14.92;100.00;95685.78;5088870;28;19928;-76
2023/05/14 10:41:05;;;;;;;;;;;;;;;14.98;100.00;95682.66;5084177;28;19935;-77
2023/05/14 10:43:36;;;;;;;;;;;;;;;14.91;100.00;95682.38;5088745;28;19924;-76
2023/05/14 10:46:03;;;;;;;;;;;;;;;14.49;100.00;95686.59;5076046;28;19925;-76
2023/05/14 10:48:31;;;;;;;;;;;;;;;14.61;100.00;95672.63;5079653;28;19924;-76
2023/05/14 10:50:58;;;;;;;;;;;;;;;15.04;100.00;95679.56;5076542;28;20391;-76
2023/05/14 10:53:31;;;;;;;;;;;;;;;15.11;100.00;95674.69;5073346;28;19925;-76
2023/05/14 10:55:58;;;;;;;;;;;;;;;15.01;100.00;95677.19;5085447;28;19970;-77
2023/05/14 10:58:24;;;;;;;;;;;;;;;14.71;100.00;95672.72;5080073;28;20125;-76
2023/05/14 11:00:54;;;;;;;;;;;;;;;14.67;100.00;95664.31;5083883;28;19948;-77
2023/05/14 11:03:20;;;;;;;;;;;;;;;14.80;100.00;95664.16;5089374;28;19924;-75
2023/05/14 11:05:48;;;;;;;;;;;;;;;14.68;100.00;95660.78;5076733;28;19924;-77
2023/05/14 11:08:15;;;;;;;;;;;;;;;14.64;100.00;95654.13;5088643;28;19969;-77
2023/05/14 11:10:42;;;;;;;;;;;;;;;14.80;100.00;95652.91;5086844;28;19932;-77
2023/05/14 11:13:08;;;;;;;;;;;;;;;14.73;100.00;95642.97;5086859;28;19947;-77
2023/05/14 11:15:35;;;;;;;;;;;;;;;14.54;100.00;95641.97;5086809;28;19925;-78
2023/05/14 11:18:01;;;;;;;;;;;;;;;14.18;100.00;95644.75;5083012;28;20376;-77
2023/05/14 11:20:27;;;;;;;;;;;;;;;14.64;100.00;95646.28;5086935;28;19924;-76
2023/05/14 11:22:55;;;;;;;;;;;;;;;14.28;100.00;95644.84;5090256;28;19924;-77
2023/05/14 11:25:24;;;;;;;;;;;;;;;14.30;100.00;95645.53;5087741;28;19935;-77
2023/05/14 11:27:54;;;;;;;;;;;;;;;14.31;100.00;95648.97;5081566;28;20012;-76
2023/05/14 11:30:21;;;;;;;;;;;;;;;14.40;100.00;95640.44;5087416;28;19932;-76
2023/05/14 11:32:48;;;;;;;;;;;;;;;14.56;100.00;95632.25;5069325;28;19928;-76
2023/05/14 11:35:14;;;;;;;;;;;;;;;14.92;100.00;95631.84;5074094;28;19931;-77
2023/05/14 11:37:40;;;;;;;;;;;;;;;14.98;100.00;95636.56;5069635;28;20005;-77
2023/05/14 11:40:10;;;;;;;;;;;;;;;15.41;100.00;95634.78;5076590;28;19993;-76
2023/05/14 11:42:36;;;;;;;;;;;;;;;15.74;100.00;95628.50;5072759;28;20023;-77
2023/05/14 11:45:03;;;;;;;;;;;;;;;15.88;100.00;95629.94;5070720;28;19925;-77
2023/05/14 11:47:29;;;;;;;;;;;;;;;15.72;100.00;95633.88;5072140;28;19928;-76
2023/05/14 11:49:55;;;;;;;;;;;;;;;15.84;100.00;95629.38;5071268;28;19971;-78
2023/05/14 11:52:22;;;;;;;;;;;;;;;15.94;100.00;95625.03;5075446;28;19928;-77
2023/05/14 11:54:49;;;;;;;;;;;;;;;15.81;100.00;95636.66;5073463;28;20290;-77
2023/05/14 11:57:18;;;;;;;;;;;;;;;15.33;100.00;95635.41;5069413;28;19935;-77
2023/05/14 11:59:45;;;;;;;;;;;;;;;15.06;100.00;95633.34;5079023;28;20330;-77
2023/05/14 12:02:12;;;;;;;;;;;;;;;14.84;100.00;95633.44;5070514;28;19924;-77
2023/05/14 12:04:38;;;;;;;;;;;;;;;14.88;100.00;95630.44;5075444;28;19924;-79
2023/05/14 12:07:08;;;;;;;;;;;;;;;14.81;100.00;95631.91;5072252;28;19982;-77
2023/05/14 12:09:35;;;;;;;;;;;;;;;14.49;100.00;95626.66;5075449;28;20015;-76
2023/05/14 12:12:07;;;;;;;;;;;;;;;14.43;100.00;95619.34;5072367;28;19925;-76
2023/05/14 12:14:36;;;;;;;;;;;;;;;14.56;100.00;95624.44;5075344;28;19928;-77
2023/05/14 12:17:03;;;;;;;;;;;;;;;14.64;100.00;95619.41;5070633;28;20387;-76
2023/05/14 12:19:30;;;;;;;;;;;;;;;14.84;100.00;95617.81;5077487;28;19947;-76
2023/05/14 12:22:00;;;;;;;;;;;;;;;15.12;100.00;95613.72;5068789;28;20003;-77
2023/05/14 12:24:26;;;;;;;;;;;;;;;15.17;100.00;95615.00;5072184;28;19990;-76
2023/05/14 12:26:54;;;;;;;;;;;;;;;15.36;100.00;95611.69;5071660;28;20383;-76
2023/05/14 12:29:21;;;;;;;;;;;;;;;15.29;100.00;95604.50;5065030;28;19928;-76
2023/05/14 12:31:49;;;;;;;;;;;;;;;15.51;100.00;95601.72;5066511;28;20001;-77
2023/05/14 12:34:16;;;;;;;;;;;;;;;15.61;100.00;95591.31;5070666;28;19928;-78
2023/05/14 12:36:42;;;;;;;;;;;;;;;15.72;100.00;95593.84;5070541;28;19977;-77
2023/05/14 12:39:09;;;;;;;;;;;;;;;15.70;100.00;95596.59;5072210;28;19939;-77
2023/05/14 12:41:35;;;;;;;;;;;;;;;15.58;100.00;95594.22;5071874;28;19955;-77